createdAt,value
2023-05-09T00:02:25.514Z,4.82
2023-05-09T00:04:53.181Z,4.78
2023-05-09T00:07:20.722Z,4.72
2023-05-09T00:09:47.949Z,4.69
2023-05-09T00:12:14.860Z,4.74
2023-05-09T00:14:42.793Z,4.73
2023-05-09T00:17:09.837Z,4.76
2023-05-09T00:19:38.349Z,4.74
2023-05-09T00:22:07.197Z,4.69
2023-05-09T00:24:34.403Z,4.69
2023-05-09T00:27:01.778Z,4.74
2023-05-09T00:29:29.241Z,4.79
2023-05-09T00:31:56.623Z,4.74
2023-05-09T00:34:23.940Z,4.73
2023-05-09T00:36:51.093Z,4.70
2023-05-09T00:39:18.302Z,4.70
2023-05-09T00:41:45.463Z,4.63
2023-05-09T00:44:12.812Z,4.59
2023-05-09T00:46:40.331Z,4.61
2023-05-09T00:49:08.881Z,4.59
2023-05-09T00:51:37.579Z,4.52
2023-05-09T00:54:07.685Z,4.54
2023-05-09T00:56:36.270Z,4.57
2023-05-09T00:59:03.947Z,4.62
2023-05-09T01:01:30.903Z,4.51
2023-05-09T01:03:58.654Z,4.53
2023-05-09T01:06:43.882Z,4.52
2023-05-09T01:09:13.983Z,4.47
2023-05-09T01:11:52.685Z,4.54
2023-05-09T01:14:46.352Z,4.48
2023-05-09T01:17:23.411Z,4.49
2023-05-09T01:19:57.195Z,4.51
2023-05-09T01:22:31.131Z,4.58
2023-05-09T01:25:20.179Z,4.62
2023-05-09T01:28:24.672Z,4.56
2023-05-09T01:30:53.865Z,4.51
2023-05-09T01:33:22.427Z,4.54
2023-05-09T01:35:58.830Z,4.54
2023-05-09T01:38:26.276Z,4.57
2023-05-09T01:40:55.270Z,4.62
2023-05-09T01:43:23.937Z,4.59
2023-05-09T01:45:52.173Z,4.55
2023-05-09T01:48:19.179Z,4.75
2023-05-09T01:50:47.409Z,4.48
2023-05-09T01:53:15.924Z,4.49
2023-05-09T01:55:44.248Z,4.50
2023-05-09T01:58:12.012Z,4.39
2023-05-09T02:00:39.836Z,4.46
2023-05-09T02:03:07.514Z,4.35
2023-05-09T02:05:35.432Z,4.40
2023-05-09T02:08:02.597Z,4.39
2023-05-09T02:10:30.255Z,4.41
2023-05-09T02:12:57.684Z,4.37
2023-05-09T02:15:26.054Z,4.31
2023-05-09T02:17:53.471Z,4.28
2023-05-09T02:20:21.224Z,4.24
2023-05-09T02:22:48.547Z,4.20
2023-05-09T02:25:16.377Z,4.27
2023-05-09T02:27:46.359Z,4.13
2023-05-09T02:30:24.358Z,4.13
2023-05-09T02:32:55.936Z,4.00
2023-05-09T02:35:25.227Z,3.96
2023-05-09T02:37:52.990Z,3.97
2023-05-09T02:40:21.257Z,3.99
2023-05-09T02:42:48.389Z,4.09
2023-05-09T02:45:16.038Z,4.04
2023-05-09T02:47:43.512Z,4.12
2023-05-09T02:50:11.614Z,4.08
2023-05-09T02:52:39.249Z,4.11
2023-05-09T02:55:07.700Z,4.13
2023-05-09T02:57:34.802Z,4.08
2023-05-09T03:00:02.456Z,4.05
2023-05-09T03:02:29.653Z,4.08
2023-05-09T03:04:57.694Z,4.12
2023-05-09T03:07:25.257Z,4.15
2023-05-09T03:09:52.644Z,4.10
2023-05-09T03:12:19.668Z,4.19
2023-05-09T03:14:47.968Z,4.30
2023-05-09T03:17:21.489Z,4.19
2023-05-09T03:19:49.269Z,4.24
2023-05-09T03:22:16.332Z,4.27
2023-05-09T03:24:43.976Z,4.41
2023-05-09T03:27:11.109Z,4.47
2023-05-09T03:29:38.334Z,4.50
2023-05-09T03:32:05.763Z,4.59
2023-05-09T03:34:33.303Z,4.68
2023-05-09T03:37:00.360Z,4.74
2023-05-09T03:39:28.143Z,4.69
2023-05-09T03:41:55.350Z,4.76
2023-05-09T03:44:22.738Z,5.03
2023-05-09T03:46:50.538Z,5.31
2023-05-09T03:49:18.444Z,5.65
2023-05-09T03:51:45.422Z,6.00
2023-05-09T03:54:13.194Z,6.28
2023-05-09T03:56:40.610Z,6.57
2023-05-09T03:59:08.010Z,6.82
2023-05-09T04:01:35.261Z,6.89
2023-05-09T04:04:02.904Z,6.80
2023-05-09T04:06:30.878Z,7.01
2023-05-09T04:08:58.283Z,7.24
2023-05-09T04:11:25.843Z,7.09
2023-05-09T04:13:54.809Z,7.14
2023-05-09T04:16:22.088Z,7.24
2023-05-09T04:18:50.200Z,7.36
2023-05-09T04:21:17.364Z,7.53
2023-05-09T04:23:44.737Z,7.78
2023-05-09T04:26:14.028Z,7.93
2023-05-09T04:28:41.448Z,7.98
2023-05-09T04:31:09.271Z,7.94
2023-05-09T04:33:38.404Z,7.63
2023-05-09T04:36:06.298Z,7.63
2023-05-09T04:38:33.924Z,7.67
2023-05-09T04:41:01.410Z,7.82
2023-05-09T04:43:28.695Z,7.92
2023-05-09T04:45:55.805Z,7.71
2023-05-09T04:48:23.549Z,7.49
2023-05-09T04:50:50.699Z,7.72
2023-05-09T04:53:18.471Z,7.74
2023-05-09T04:55:45.570Z,7.96
2023-05-09T04:58:13.038Z,8.18
2023-05-09T05:00:40.281Z,7.93
2023-05-09T05:03:07.920Z,8.24
2023-05-09T05:05:37.258Z,8.32
2023-05-09T05:08:05.289Z,8.51
2023-05-09T05:10:32.622Z,8.51
2023-05-09T05:12:59.902Z,8.57
2023-05-09T05:15:27.536Z,8.74
2023-05-09T05:17:55.169Z,8.81
2023-05-09T05:20:22.480Z,8.86
2023-05-09T05:22:50.345Z,8.77
2023-05-09T05:25:18.786Z,8.64
2023-05-09T05:27:46.477Z,8.54
2023-05-09T05:30:15.683Z,8.55
2023-05-09T05:32:44.166Z,8.64
2023-05-09T05:35:14.180Z,8.49
2023-05-09T05:37:42.031Z,8.51
2023-05-09T05:40:10.016Z,8.33
2023-05-09T05:42:37.468Z,8.58
2023-05-09T05:45:04.961Z,8.83
2023-05-09T05:47:36.495Z,8.74
2023-05-09T05:50:07.099Z,8.81
2023-05-09T05:52:34.931Z,8.78
2023-05-09T05:55:02.070Z,9.14
2023-05-09T05:57:29.476Z,9.05
2023-05-09T05:59:57.209Z,9.03
2023-05-09T06:02:24.802Z,9.40
2023-05-09T06:04:53.327Z,9.75
2023-05-09T06:07:22.521Z,9.59
2023-05-09T06:09:49.945Z,9.80
2023-05-09T06:12:17.654Z,10.08
2023-05-09T06:14:45.504Z,10.05
2023-05-09T06:17:13.264Z,10.03
2023-05-09T06:19:40.600Z,9.82
2023-05-09T06:22:08.351Z,9.85
2023-05-09T06:24:36.457Z,10.17
2023-05-09T06:27:04.744Z,10.49
2023-05-09T06:29:32.285Z,10.64
2023-05-09T06:31:59.895Z,10.84
2023-05-09T06:34:27.152Z,10.70
2023-05-09T06:36:54.981Z,10.97
2023-05-09T06:39:22.051Z,10.55
2023-05-09T06:41:49.948Z,10.41
2023-05-09T06:44:17.557Z,10.68
2023-05-09T06:46:45.057Z,10.73
2023-05-09T06:49:14.265Z,10.93
2023-05-09T06:51:41.898Z,11.21
2023-05-09T06:54:09.463Z,11.02
2023-05-09T06:56:37.308Z,11.05
2023-05-09T06:59:05.354Z,10.87
2023-05-09T07:01:32.776Z,10.80
2023-05-09T07:03:59.982Z,10.59
2023-05-09T07:06:27.808Z,10.80
2023-05-09T07:08:55.024Z,11.11
2023-05-09T07:11:23.081Z,11.13
2023-05-09T07:13:50.377Z,10.73
2023-05-09T07:16:23.226Z,11.06
2023-05-09T07:18:50.526Z,11.07
2023-05-09T07:21:18.353Z,11.16
2023-05-09T07:23:45.600Z,11.35
2023-05-09T07:26:13.236Z,11.48
2023-05-09T07:28:40.593Z,11.45
2023-05-09T07:31:09.668Z,11.59
2023-05-09T07:33:36.892Z,11.39
2023-05-09T07:36:05.593Z,11.63
2023-05-09T07:38:33.122Z,11.54
2023-05-09T07:41:01.576Z,11.63
2023-05-09T07:43:28.870Z,11.78
2023-05-09T07:45:56.473Z,11.86
2023-05-09T07:48:23.903Z,11.89
2023-05-09T07:50:51.725Z,12.11
2023-05-09T07:53:18.946Z,12.19
2023-05-09T07:55:48.832Z,12.05
2023-05-09T07:58:17.592Z,12.25
2023-05-09T08:00:45.299Z,12.58
2023-05-09T08:03:12.830Z,12.65
2023-05-09T08:05:40.985Z,12.81
2023-05-09T08:08:08.739Z,12.70
2023-05-09T08:10:36.740Z,13.34
2023-05-09T08:13:04.288Z,13.15
2023-05-09T08:15:32.014Z,13.22
2023-05-09T08:17:59.455Z,13.33
2023-05-09T08:20:27.445Z,13.43
2023-05-09T08:22:54.784Z,13.72
2023-05-09T08:25:22.423Z,13.71
2023-05-09T08:27:51.579Z,13.77
2023-05-09T08:30:20.985Z,13.44
2023-05-09T08:32:48.177Z,13.54
2023-05-09T08:35:16.367Z,13.31
2023-05-09T08:37:44.080Z,13.44
2023-05-09T08:40:11.792Z,13.74
2023-05-09T08:42:40.441Z,13.72
2023-05-09T08:45:10.190Z,14.08
2023-05-09T08:47:40.897Z,14.09
2023-05-09T08:50:10.218Z,14.15
2023-05-09T08:52:37.395Z,14.03
2023-05-09T08:55:05.211Z,13.99
2023-05-09T08:57:36.074Z,13.86
2023-05-09T09:00:11.449Z,14.03
2023-05-09T09:02:41.926Z,14.16
2023-05-09T09:05:23.818Z,14.23
2023-05-09T09:07:59.897Z,14.17
2023-05-09T09:10:29.839Z,14.28
2023-05-09T09:12:59.070Z,14.14
2023-05-09T09:15:30.888Z,14.32
2023-05-09T09:18:00.376Z,14.13
2023-05-09T09:20:29.266Z,14.59
2023-05-09T09:23:01.334Z,15.04
2023-05-09T09:25:29.101Z,14.99
2023-05-09T09:27:56.359Z,15.16
2023-05-09T09:30:25.448Z,15.17
2023-05-09T09:32:52.796Z,15.08
2023-05-09T09:35:20.643Z,14.90
2023-05-09T09:37:47.835Z,14.55
2023-05-09T09:40:15.953Z,14.82
2023-05-09T09:42:44.450Z,14.94
2023-05-09T09:45:13.786Z,15.05
2023-05-09T09:47:42.662Z,15.41
2023-05-09T09:50:17.624Z,15.79
2023-05-09T09:52:53.023Z,15.82
2023-05-09T09:55:22.479Z,15.67
2023-05-09T09:57:50.675Z,16.13
2023-05-09T10:00:21.405Z,15.42
2023-05-09T10:02:53.515Z,15.53
2023-05-09T10:05:29.941Z,15.79
2023-05-09T10:08:04.645Z,15.58
2023-05-09T10:10:34.750Z,15.76
2023-05-09T10:13:07.824Z,16.05
2023-05-09T10:15:49.223Z,15.45
2023-05-09T10:18:32.986Z,16.15
2023-05-09T10:21:03.603Z,15.75
2023-05-09T10:23:32.229Z,15.71
2023-05-09T10:26:12.646Z,15.92
2023-05-09T10:28:42.763Z,15.40
2023-05-09T10:31:17.429Z,15.67
2023-05-09T10:33:49.675Z,15.44
2023-05-09T10:36:20.932Z,15.71
2023-05-09T10:38:49.547Z,15.92
2023-05-09T10:41:19.195Z,15.61
2023-05-09T10:43:47.623Z,15.99
2023-05-09T10:46:16.684Z,16.11
2023-05-09T10:48:44.916Z,16.21
2023-05-09T10:51:12.897Z,15.95
2023-05-09T10:53:49.834Z,15.87
2023-05-09T10:56:24.537Z,16.33
2023-05-09T10:58:52.121Z,16.24
2023-05-09T11:01:35.392Z,16.35
2023-05-09T11:04:13.158Z,16.57
2023-05-09T11:06:55.708Z,16.28
2023-05-09T11:09:33.978Z,16.40
2023-05-09T11:12:12.421Z,16.91
2023-05-09T11:14:45.266Z,16.78
2023-05-09T11:17:12.986Z,17.25
2023-05-09T11:19:43.255Z,17.11
2023-05-09T11:22:20.308Z,17.29
2023-05-09T11:24:52.349Z,17.57
2023-05-09T11:27:24.832Z,17.11
2023-05-09T11:29:55.722Z,17.12
2023-05-09T11:32:28.683Z,17.84
2023-05-09T11:35:10.852Z,18.26
2023-05-09T11:37:48.717Z,18.27
2023-05-09T11:40:18.697Z,17.84
2023-05-09T11:42:56.218Z,17.85
2023-05-09T11:45:28.211Z,16.98
2023-05-09T11:47:57.348Z,17.21
2023-05-09T11:50:25.487Z,17.09
2023-05-09T11:52:54.208Z,16.92
2023-05-09T11:55:30.605Z,16.92
2023-05-09T11:57:59.671Z,17.26
2023-05-09T12:00:27.090Z,17.19
2023-05-09T12:02:54.543Z,17.13
2023-05-09T12:05:23.412Z,17.49
2023-05-09T12:07:51.155Z,17.72
2023-05-09T12:10:23.128Z,17.32
2023-05-09T12:12:52.728Z,17.37
2023-05-09T12:15:21.862Z,17.42
2023-05-09T12:18:03.346Z,17.51
2023-05-09T12:20:48.224Z,17.35
2023-05-09T12:23:16.216Z,16.83
2023-05-09T12:25:54.220Z,17.11
2023-05-09T12:28:23.581Z,17.41
2023-05-09T12:30:51.951Z,17.27
2023-05-09T12:33:19.922Z,17.55
2023-05-09T12:35:48.482Z,17.51
2023-05-09T12:38:21.827Z,17.62
2023-05-09T12:40:49.971Z,18.08
2023-05-09T12:43:17.733Z,18.03
2023-05-09T12:45:44.621Z,17.73
2023-05-09T12:48:13.744Z,17.63
2023-05-09T12:50:41.231Z,18.00
2023-05-09T12:53:08.418Z,18.35
2023-05-09T12:55:40.929Z,17.87
2023-05-09T12:58:08.622Z,17.66
2023-05-09T13:00:46.176Z,17.85
2023-05-09T13:03:21.822Z,17.56
2023-05-09T13:05:59.562Z,17.60
2023-05-09T13:08:28.369Z,18.05
2023-05-09T13:11:04.045Z,17.91
2023-05-09T13:13:42.870Z,17.86
2023-05-09T13:16:11.237Z,17.90
2023-05-09T13:18:40.212Z,18.01
2023-05-09T13:21:07.866Z,17.88
2023-05-09T13:23:35.162Z,17.50
2023-05-09T13:26:02.187Z,17.38
2023-05-09T13:28:30.183Z,17.59
2023-05-09T13:30:57.515Z,17.77
2023-05-09T13:33:26.422Z,17.61
2023-05-09T13:35:54.283Z,17.41
2023-05-09T13:38:21.587Z,17.32
2023-05-09T13:40:48.455Z,17.48
2023-05-09T13:43:16.428Z,17.50
2023-05-09T13:45:43.432Z,17.33
2023-05-09T13:48:11.841Z,17.82
2023-05-09T13:50:39.327Z,17.86
2023-05-09T13:53:06.493Z,17.80
2023-05-09T13:55:34.615Z,17.51
2023-05-09T13:58:02.214Z,17.66
2023-05-09T14:00:29.273Z,17.93
2023-05-09T14:02:56.597Z,17.87
2023-05-09T14:05:25.444Z,17.60
2023-05-09T14:07:52.966Z,17.56
2023-05-09T14:10:20.278Z,17.57
2023-05-09T14:12:48.746Z,17.78
2023-05-09T14:15:16.481Z,17.85
2023-05-09T14:17:43.818Z,17.82
2023-05-09T14:20:11.733Z,18.07
2023-05-09T14:22:38.956Z,18.13
2023-05-09T14:25:06.423Z,17.97
2023-05-09T14:27:37.240Z,18.07
2023-05-09T14:30:05.116Z,17.79
2023-05-09T14:32:32.959Z,17.80
2023-05-09T14:35:00.540Z,17.76
2023-05-09T14:37:29.627Z,17.65
2023-05-09T14:39:56.768Z,17.63
2023-05-09T14:42:24.358Z,17.69
2023-05-09T14:44:51.374Z,17.61
2023-05-09T14:47:18.863Z,17.58
2023-05-09T14:49:46.421Z,17.37
2023-05-09T14:52:13.920Z,17.70
2023-05-09T14:54:41.326Z,17.91
2023-05-09T14:57:09.249Z,17.82
2023-05-09T14:59:37.262Z,17.53
2023-05-09T15:02:04.876Z,17.51
2023-05-09T15:04:33.152Z,17.78
2023-05-09T15:07:00.694Z,17.73
2023-05-09T15:09:28.119Z,17.44
2023-05-09T15:11:56.084Z,17.22
2023-05-09T15:14:23.019Z,17.16
2023-05-09T15:16:52.438Z,17.12
2023-05-09T15:19:20.118Z,17.35
2023-05-09T15:21:47.349Z,17.39
2023-05-09T15:24:14.295Z,17.82
2023-05-09T15:26:42.381Z,17.90
2023-05-09T15:29:09.592Z,17.46
2023-05-09T15:31:37.027Z,17.62
2023-05-09T15:34:05.300Z,17.44
2023-05-09T15:36:34.116Z,17.32
2023-05-09T15:39:01.415Z,17.72
2023-05-09T15:41:29.282Z,18.01
2023-05-09T15:43:56.493Z,18.30
2023-05-09T15:46:24.143Z,18.28
2023-05-09T15:48:53.448Z,18.60
2023-05-09T15:51:22.774Z,18.82
2023-05-09T15:53:50.174Z,19.86
2023-05-09T15:56:19.063Z,21.15
2023-05-09T15:58:46.315Z,21.63
2023-05-09T16:01:14.783Z,21.30
2023-05-09T16:03:43.447Z,22.58
2023-05-09T16:06:12.975Z,21.88
2023-05-09T16:08:39.914Z,21.99
2023-05-09T16:11:07.430Z,22.41
2023-05-09T16:13:36.023Z,23.29
2023-05-09T16:16:04.237Z,24.19
2023-05-09T16:18:31.732Z,24.76
2023-05-09T16:20:59.738Z,25.65
2023-05-09T16:23:26.700Z,25.75
2023-05-09T16:25:54.634Z,25.71
2023-05-09T16:28:23.669Z,25.70
2023-05-09T16:30:54.161Z,25.94
2023-05-09T16:33:21.400Z,23.44
2023-05-09T16:35:48.707Z,25.52
2023-05-09T16:38:15.666Z,24.57
2023-05-09T16:40:43.182Z,24.76
2023-05-09T16:43:10.137Z,23.85
2023-05-09T16:45:37.872Z,24.12
2023-05-09T16:48:06.087Z,24.40
2023-05-09T16:50:34.016Z,23.92
2023-05-09T16:53:02.353Z,24.49
2023-05-09T16:55:30.699Z,24.80
2023-05-09T16:57:57.647Z,24.45
2023-05-09T17:00:25.535Z,23.58
2023-05-09T17:02:53.395Z,23.12
2023-05-09T17:05:20.847Z,23.19
2023-05-09T17:07:48.150Z,24.07
2023-05-09T17:10:16.273Z,23.24
2023-05-09T17:12:43.670Z,23.16
2023-05-09T17:15:14.225Z,23.22
2023-05-09T17:17:41.837Z,23.35
2023-05-09T17:20:11.742Z,23.62
2023-05-09T17:22:39.101Z,23.36
2023-05-09T17:25:07.367Z,22.68
2023-05-09T17:27:34.822Z,22.01
2023-05-09T17:30:02.931Z,21.54
2023-05-09T17:32:30.829Z,21.13
2023-05-09T17:34:58.553Z,19.12
2023-05-09T17:37:26.076Z,17.59
2023-05-09T17:39:54.485Z,16.60
2023-05-09T17:42:21.796Z,16.32
2023-05-09T17:44:50.502Z,15.81
2023-05-09T17:47:17.795Z,15.46
2023-05-09T17:49:45.139Z,15.27
2023-05-09T17:52:12.354Z,15.04
2023-05-09T17:54:40.131Z,14.97
2023-05-09T17:57:07.565Z,14.79
2023-05-09T17:59:35.258Z,14.58
2023-05-09T18:02:03.168Z,14.44
2023-05-09T18:04:32.887Z,14.43
2023-05-09T18:07:01.164Z,14.18
2023-05-09T18:09:29.868Z,14.14
2023-05-09T18:11:57.642Z,14.02
2023-05-09T18:14:25.730Z,13.77
2023-05-09T18:16:53.897Z,13.74
2023-05-09T18:19:22.117Z,13.67
2023-05-09T18:21:49.831Z,13.54
2023-05-09T18:24:21.974Z,13.53
2023-05-09T18:26:50.173Z,13.34
2023-05-09T18:29:19.790Z,13.34
2023-05-09T18:31:48.052Z,13.16
2023-05-09T18:34:16.406Z,13.19
2023-05-09T18:36:44.172Z,13.06
2023-05-09T18:39:14.293Z,12.96
2023-05-09T18:41:43.292Z,12.94
2023-05-09T18:44:11.824Z,12.96
2023-05-09T18:46:40.447Z,12.92
2023-05-09T18:49:09.930Z,12.82
2023-05-09T18:51:37.921Z,12.84
2023-05-09T18:54:06.303Z,12.72
2023-05-09T18:56:39.442Z,12.67
2023-05-09T18:59:09.715Z,12.62
2023-05-09T19:01:38.127Z,12.41
2023-05-09T19:04:07.311Z,12.44
2023-05-09T19:06:35.939Z,12.33
2023-05-09T19:09:04.643Z,12.36
2023-05-09T19:11:32.442Z,12.30
2023-05-09T19:14:00.963Z,12.21
2023-05-09T19:16:28.605Z,12.14
2023-05-09T19:18:57.888Z,12.15
2023-05-09T19:21:26.171Z,12.05
2023-05-09T19:23:54.276Z,11.93
2023-05-09T19:26:23.324Z,11.95
2023-05-09T19:28:52.698Z,11.96
2023-05-09T19:31:25.768Z,11.81
2023-05-09T19:33:54.498Z,11.75
2023-05-09T19:36:22.086Z,11.72
2023-05-09T19:38:50.336Z,11.62
2023-05-09T19:41:18.662Z,11.60
2023-05-09T19:43:49.292Z,11.71
2023-05-09T19:46:17.223Z,11.66
2023-05-09T19:48:45.653Z,11.63
2023-05-09T19:51:14.766Z,11.57
2023-05-09T19:53:42.515Z,11.56
2023-05-09T19:56:10.159Z,11.50
2023-05-09T19:58:38.780Z,11.55
2023-05-09T20:01:07.346Z,11.44
2023-05-09T20:03:38.815Z,11.54
2023-05-09T20:06:08.004Z,11.42
2023-05-09T20:08:36.023Z,11.28
2023-05-09T20:11:03.400Z,11.22
2023-05-09T20:13:31.089Z,11.16
2023-05-09T20:15:59.286Z,10.95
2023-05-09T20:18:27.117Z,10.87
2023-05-09T20:20:54.965Z,10.93
2023-05-09T20:23:23.078Z,10.85
2023-05-09T20:26:15.760Z,10.79
2023-05-09T20:28:43.513Z,10.86
2023-05-09T20:31:10.863Z,10.78
2023-05-09T20:33:40.552Z,10.82
2023-05-09T20:36:10.918Z,10.78
2023-05-09T20:38:38.619Z,10.75
2023-05-09T20:41:05.757Z,10.69
2023-05-09T20:43:33.518Z,10.63
2023-05-09T20:46:01.291Z,10.60
2023-05-09T20:48:29.052Z,10.61
2023-05-09T20:50:56.471Z,10.53
2023-05-09T20:53:26.603Z,10.31
2023-05-09T20:55:53.910Z,10.13
2023-05-09T20:58:21.417Z,10.10
2023-05-09T21:00:48.810Z,10.02
2023-05-09T21:03:17.203Z,10.06
2023-05-09T21:05:44.622Z,9.94
2023-05-09T21:08:12.741Z,9.90
2023-05-09T21:10:39.750Z,9.75
2023-05-09T21:13:07.440Z,9.73
2023-05-09T21:15:34.545Z,9.67
2023-05-09T21:18:01.914Z,9.67
2023-05-09T21:20:29.267Z,9.60
2023-05-09T21:22:56.999Z,9.52
2023-05-09T21:25:24.252Z,9.54
2023-05-09T21:27:53.229Z,9.48
2023-05-09T21:30:20.540Z,9.54
2023-05-09T21:32:48.081Z,9.60
2023-05-09T21:35:15.708Z,9.58
2023-05-09T21:37:43.297Z,9.58
2023-05-09T21:40:10.862Z,9.51
2023-05-09T21:42:40.821Z,9.53
2023-05-09T21:45:08.730Z,9.53
2023-05-09T21:47:36.947Z,9.46
2023-05-09T21:50:05.114Z,9.42
2023-05-09T21:52:32.832Z,9.39
2023-05-09T21:55:00.131Z,9.38
2023-05-09T21:57:28.088Z,9.37
2023-05-09T21:59:56.520Z,9.20
2023-05-09T22:02:24.210Z,9.18
2023-05-09T22:04:52.571Z,9.03
2023-05-09T22:07:22.093Z,8.89
2023-05-09T22:09:49.349Z,8.78
2023-05-09T22:12:17.478Z,8.75
2023-05-09T22:14:52.965Z,8.68
2023-05-09T22:17:24.952Z,8.78
2023-05-09T22:19:52.454Z,8.64
2023-05-09T22:22:20.191Z,8.47
2023-05-09T22:24:48.223Z,8.46
2023-05-09T22:27:16.016Z,8.37
2023-05-09T22:29:43.530Z,8.38
2023-05-09T22:32:12.214Z,8.33
2023-05-09T22:34:39.960Z,8.40
2023-05-09T22:37:07.409Z,8.43
2023-05-09T22:39:35.070Z,8.40
2023-05-09T22:42:03.894Z,8.43
2023-05-09T22:44:32.485Z,8.28
2023-05-09T22:47:00.456Z,8.26
2023-05-09T22:49:28.621Z,8.24
2023-05-09T22:51:55.967Z,8.18
2023-05-09T22:54:23.673Z,8.20
2023-05-09T22:56:51.021Z,8.11
2023-05-09T22:59:18.065Z,8.12
2023-05-09T23:01:45.580Z,8.13
2023-05-09T23:04:12.800Z,8.00
2023-05-09T23:06:40.163Z,7.94
2023-05-09T23:09:08.260Z,7.87
2023-05-09T23:11:35.480Z,7.80
2023-05-09T23:14:02.906Z,7.74
2023-05-09T23:16:30.886Z,7.74
2023-05-09T23:18:58.040Z,7.75
2023-05-09T23:21:25.518Z,7.68
2023-05-09T23:23:53.343Z,7.70
2023-05-09T23:26:21.671Z,7.67
2023-05-09T23:28:48.967Z,7.63
2023-05-09T23:31:16.965Z,7.57
2023-05-09T23:33:44.095Z,7.64
2023-05-09T23:36:11.365Z,7.68
2023-05-09T23:38:38.649Z,7.65
2023-05-09T23:41:06.082Z,7.69
2023-05-09T23:43:34.382Z,7.61
2023-05-09T23:46:02.005Z,7.62
2023-05-09T23:48:29.109Z,7.43
2023-05-09T23:50:56.489Z,7.41
2023-05-09T23:53:24.054Z,7.31
2023-05-09T23:55:51.867Z,7.25
2023-05-09T23:58:18.816Z,7.37
